Sheffield, TX

8:34 AM CDT on July 30, 2014 (GMT -0500)
Ozona Municipal (KOZA) Elev 2382 ft | 30.74 °N, 101.20 °W | Change Station

Current weather conditions updated 19 minutes ago

Clear
Clear
77 °F
Feels Like 77 °F
N
13
Wind Variable Wind from South
Gusts 18 mph

Today is forecast to be Warmer than yesterday.

Today
High -- | Low -- °F
--% Chance of Precip.
Yesterday
High -- | Low -- °F
Precip. -- in
7:03 AM 8:43 PM
Waxing Crescent, 11% visible
Pressure 30.09 in
Visibility 10.0 miles
Clouds Clear
Dew Point 63 °F
Humidity 61%
Rainfall 0.00 in
Snow Depth Not available.
UV 1 out of 12
Pollen 5.50 out of 12
Air Quality Not available.
Flu Activity Not available.
METAR KOZA 301315Z AUTO 18011G16KT 10SM CLR 25/17 A3009 RMK AO2

More Conditions Fewer Conditions

Pressure 30.09 in
Visibility 10.0 miles
Clouds Clear
Dew Point 63 °F
Humidity 61%
Rainfall 0.00 in
Snow Depth Not available.
UV 1 out of 12
Pollen 5.50 out of 12
Air Quality Not available.
Flu Activity Not available.
METAR KOZA 301315Z AUTO 18011G16KT 10SM CLR 25/17 A3009 RMK AO2

More Conditions Fewer Conditions

10-Day Weather Forecast

Almanac

Astronomy

Jul. 30, 2014 Rise Set
Actual Time 7:03 AM CDT 8:43 PM CDT
Civil Twilight 6:37 AM CDT 9:09 PM CDT
Nautical Twilight 6:06 AM CDT 9:41 PM CDT
Astronomical Twilight 5:32 AM CDT 10:14 PM CDT
Moon 10:19 AM CDT 10:46 PM CDT
Length of Visible Light 14h 31m
Length of Day
13h 39m
Tomorrow will be 1m 22s shorter.
Waxing Crescent, 11% of the Moon is Illuminated
Today
Waxing Crescent
Aug 3
First Quarter
Aug 10
Full
Aug 17
Last Quarter
Aug 25
New

Today's Extremes

State Highs State Lows

Community

WunderPhotos

Upload Photos

1,739,079 photos uploaded!

Nearby

Snow Depth

Station Depth Elevation
No new snow has been reported.

Earthquake Activity

City Distance Mag. Time & Date
No recent earthquake activity has been reported nearby.
Minimum magnitude displayed is 2.5.

Coastal Water Temperatures

Place Temperature
No Stations Reporting

Nearby Weather Stations

There are no personal weather stations in this area.